Impacts TAF Board INFO
FOR SITUATIONAL AWARENESS. NOT TO BE USED FOR FLIGHT PLANNING PURPOSES.
IDs:

KMSP - Minneapolis-St Paul, MN, US

Issued at 0058 UTC 25 May 2018
Updated at 0123 UTC 25 May 2018
Potential Impact None Slight Moderate High
Time0044Z 25/02Z 25/03Z 25/04Z 25/05Z 25/06Z 25/07Z 25/08Z 25/09Z 25/10Z 25/11Z 25/12Z 25/13Z 25/14Z>>
Type OBS PRVL PRVL PRVL PRVL PRVL PRVL PRVL PRVL PRVL PRVL PRVL PRVL PRVL
VIS 3 >6 >6 >6 >6 >6 >6 >6 >6 >6 >6 >6 >6 >6
CIG 75 70 -- -- -- -- -- -- -- -- -- -- -- --
Cover OVC BKN FEW FEW FEW FEW FEW FEW FEW FEW FEW FEW FEW FEW
FltCat MVFR VFR VFR VFR VFR VFR VFR VFR VFR VFR VFR VFR VFR VFR
WX +TSRA BR VCTS -- -- -- -- -- -- -- -- -- -- -- --
WDir 270 120 190 190 190 190 190 190 190 190 190 190 190 190
WSpd 14 5 8 8 8 8 8 8 8 8 8 8 8 8
WGst 53 -- -- -- -- -- -- -- -- -- -- -- -- --

Raw TAF
KMSP 250058Z 2501/2606 29012KT 5SM -TSRA BR SCT020CB OVC070
  FM250115 12005KT P6SM VCTS BKN070CB
  FM250300 19008KT P6SM FEW080
  FM251800 25010KT P6SM FEW070


Raw METAR
KMSP 250044Z 27014G53KT 3SM R30L/3000VP6000FT +TSRA BR FEW032CB BKN075 BKN090 OVC150 21/19 A2993 RMK AO2 PK WND 27053/0037 WSHFT 0016 LTG DSNT ALQDS RAB29 TSB17 FRQ LTGICCG OHD AND NE-S TS NE-S MOV E P0050 T02060194
KMSP 250041Z 27019G53KT 3/4SM R30L/3000VP6000FT +TSRA BR SCT034CB SCT075 BKN090 OVC130 20/19 A2992 RMK AO2 PK WND 27053/0037 WSHFT 0016 LTG DSNT ALQDS RAB29 TSB17 FRQ LTGICCG S-NW TS S-NW MOV E P0036 T02000194
KMSP 250038Z 26032G53KT 1/2SM R30L/3000VP6000FT +TSRA FG SCT008 BKN025CB OVC040 21/19 A2992 RMK AO2 PK WND 27053/0037 WSHFT 0016 LTG DSNT ALQDS RAB29 TSB17 FRQ LTGICCG S-NW TS S-NW MOV E P0013 T02110194
KMSP 250036Z 25029G45KT 3/4SM R30L/5500VP6000FT +TSRA BKN025CB OVC040 22/19 A2994 RMK AO2 PK WND 28045/0036 WSHFT 0016 LTG DSNT ALQDS RAB29 TSB17 PRESRR FRQ LTGICCG S-NW TS S-NW MOV E P0005 T02220194
KMSP 250034Z 26024G43KT 1 1/2SM TSRA FEW070CB SCT090 BKN110 OVC200 24/19 A2993 RMK AO2 PK WND 26043/0029 WSHFT 0016 LTG DSNT ALQDS RAB29 TSB17 PRESRR FRQ LTGICCG S-NW TS S-NW MOV E P0001 T02390189
KMSP 250031Z 25025G43KT 5SM -TSRA FEW070CB FEW090 SCT110 BKN200 OVC300 26/18 A2991 RMK AO2 PK WND 26043/0029 WSHFT 0016 LTG DSNT ALQDS RAB29 TSB17 PRESRR FRQ LTGICCG S-NW TS S-NW MOV E P0000 T02610183
KMSP 250019Z 18018G26KT 10SM TS FEW075CB FEW110 SCT160 BKN200 OVC300 31/17 A2986 RMK AO2 PK WND 18026/0018 LTG DSNT ALQDS TSB17 FRQ LTGICCG S-W TS S-W MOV E T03110172
KMSP 250008Z 18008KT 10SM VCTS FEW070CB SCT160 SCT200 BKN300 31/17 A2986 RMK AO2 LTG DSNT ALQDS OCNL LTGICCG VC W VCTS W MOV E CB DSNT S MOV E T03110172
KMSP 242353Z 19009KT 10SM FEW070 SCT160 SCT200 BKN300 31/17 A2987 RMK AO2 LTG DSNT S-NW SLP106 CB DSNT S AND W MOV E TCU DSNT SW T03110172 10333 20311 56012
KMSP 242253Z 21014G23KT 10SM FEW070 FEW200 SCT300 33/17 A2987 RMK AO2 PK WND 18027/2208 LTG DSNT NW SLP107 CB DSNT W AND NW TCU DSNT SW T03280167

METAR Board
Radar Display
Forecast Discussion

FOR SITUATIONAL AWARENESS. NOT TO BE USED FOR FLIGHT PLANNING PURPOSES.